sensor_id;sensor_type;location;lat;lon;timestamp;temperature;humidity
20714;DHT22;10518;50.742;4.226;2023-07-09T00:01:55;24.00;99.90
20714;DHT22;10518;50.742;4.226;2023-07-09T00:04:21;24.10;99.90
20714;DHT22;10518;50.742;4.226;2023-07-09T00:06:47;24.10;99.90
20714;DHT22;10518;50.742;4.226;2023-07-09T00:09:18;24.10;99.90
20714;DHT22;10518;50.742;4.226;2023-07-09T00:11:44;24.00;99.90
20714;DHT22;10518;50.742;4.226;2023-07-09T00:14:11;23.80;99.90
20714;DHT22;10518;50.742;4.226;2023-07-09T00:16:38;23.90;99.90
20714;DHT22;10518;50.742;4.226;2023-07-09T00:19:15;23.80;99.90
20714;DHT22;10518;50.742;4.226;2023-07-09T00:21:45;23.80;99.90
20714;DHT22;10518;50.742;4.226;2023-07-09T00:24:12;23.70;99.90
20714;DHT22;10518;50.742;4.226;2023-07-09T00:26:38;23.60;99.90
20714;DHT22;10518;50.742;4.226;2023-07-09T00:29:11;23.60;99.90
20714;DHT22;10518;50.742;4.226;2023-07-09T00:31:38;23.60;99.90
20714;DHT22;10518;50.742;4.226;2023-07-09T00:34:10;23.50;99.90
20714;DHT22;10518;50.742;4.226;2023-07-09T00:36:39;23.50;99.90
20714;DHT22;10518;50.742;4.226;2023-07-09T00:39:18;23.50;99.90
20714;DHT22;10518;50.742;4.226;2023-07-09T00:41:45;23.50;99.90
20714;DHT22;10518;50.742;4.226;2023-07-09T00:44:23;23.40;99.90
20714;DHT22;10518;50.742;4.226;2023-07-09T00:49:36;23.50;99.90
20714;DHT22;10518;50.742;4.226;2023-07-09T00:52:21;23.40;99.90
20714;DHT22;10518;50.742;4.226;2023-07-09T00:54:49;23.40;99.90
20714;DHT22;10518;50.742;4.226;2023-07-09T00:57:18;23.40;99.90
20714;DHT22;10518;50.742;4.226;2023-07-09T00:59:48;23.40;99.90
20714;DHT22;10518;50.742;4.226;2023-07-09T01:02:14;23.50;99.90
20714;DHT22;10518;50.742;4.226;2023-07-09T01:04:40;23.60;99.90
20714;DHT22;10518;50.742;4.226;2023-07-09T01:07:06;23.60;99.90
20714;DHT22;10518;50.742;4.226;2023-07-09T01:09:32;23.60;99.90
20714;DHT22;10518;50.742;4.226;2023-07-09T01:12:03;23.50;99.90
20714;DHT22;10518;50.742;4.226;2023-07-09T01:14:31;23.60;99.90
20714;DHT22;10518;50.742;4.226;2023-07-09T01:17:01;23.50;99.90
20714;DHT22;10518;50.742;4.226;2023-07-09T01:19:30;23.40;99.90
20714;DHT22;10518;50.742;4.226;2023-07-09T01:22:00;23.40;99.90
20714;DHT22;10518;50.742;4.226;2023-07-09T01:24:55;23.40;99.90
20714;DHT22;10518;50.742;4.226;2023-07-09T01:27:26;23.40;99.90
20714;DHT22;10518;50.742;4.226;2023-07-09T01:29:54;23.30;99.90
20714;DHT22;10518;50.742;4.226;2023-07-09T01:32:20;23.30;99.90
20714;DHT22;10518;50.742;4.226;2023-07-09T01:34:48;23.30;99.90
20714;DHT22;10518;50.742;4.226;2023-07-09T01:37:17;23.20;99.90
20714;DHT22;10518;50.742;4.226;2023-07-09T01:39:42;23.20;99.90
20714;DHT22;10518;50.742;4.226;2023-07-09T01:42:08;23.10;99.90
20714;DHT22;10518;50.742;4.226;2023-07-09T01:44:35;23.10;99.90
20714;DHT22;10518;50.742;4.226;2023-07-09T01:47:02;23.00;99.90
20714;DHT22;10518;50.742;4.226;2023-07-09T01:49:29;23.00;99.90
20714;DHT22;10518;50.742;4.226;2023-07-09T01:51:59;22.90;99.90
20714;DHT22;10518;50.742;4.226;2023-07-09T01:54:30;22.80;99.90
20714;DHT22;10518;50.742;4.226;2023-07-09T01:57:14;22.80;99.90
20714;DHT22;10518;50.742;4.226;2023-07-09T01:59:40;22.80;99.90
20714;DHT22;10518;50.742;4.226;2023-07-09T02:02:08;22.70;99.90
20714;DHT22;10518;50.742;4.226;2023-07-09T02:04:33;22.60;99.90
20714;DHT22;10518;50.742;4.226;2023-07-09T02:06:59;22.60;99.90
20714;DHT22;10518;50.742;4.226;2023-07-09T02:09:25;22.60;99.90
20714;DHT22;10518;50.742;4.226;2023-07-09T02:11:50;22.60;99.90
20714;DHT22;10518;50.742;4.226;2023-07-09T02:14:16;22.60;99.90
20714;DHT22;10518;50.742;4.226;2023-07-09T02:16:41;22.60;99.90
20714;DHT22;10518;50.742;4.226;2023-07-09T02:19:08;22.50;99.90
20714;DHT22;10518;50.742;4.226;2023-07-09T02:21:34;22.50;99.90
20714;DHT22;10518;50.742;4.226;2023-07-09T02:24:00;22.50;99.90
20714;DHT22;10518;50.742;4.226;2023-07-09T02:26:25;22.50;99.90
20714;DHT22;10518;50.742;4.226;2023-07-09T02:28:51;22.50;99.90
20714;DHT22;10518;50.742;4.226;2023-07-09T02:31:16;22.40;99.90
20714;DHT22;10518;50.742;4.226;2023-07-09T02:33:42;22.50;99.90
20714;DHT22;10518;50.742;4.226;2023-07-09T02:36:08;22.40;99.90
20714;DHT22;10518;50.742;4.226;2023-07-09T02:38:33;22.50;99.90
20714;DHT22;10518;50.742;4.226;2023-07-09T02:40:59;22.40;99.90
20714;DHT22;10518;50.742;4.226;2023-07-09T02:43:25;22.40;99.90
20714;DHT22;10518;50.742;4.226;2023-07-09T02:45:50;22.40;99.90
20714;DHT22;10518;50.742;4.226;2023-07-09T02:48:16;22.30;99.90
20714;DHT22;10518;50.742;4.226;2023-07-09T02:50:41;22.30;99.90
20714;DHT22;10518;50.742;4.226;2023-07-09T02:53:07;22.30;99.90
20714;DHT22;10518;50.742;4.226;2023-07-09T02:55:32;22.30;99.90
20714;DHT22;10518;50.742;4.226;2023-07-09T02:57:59;22.30;99.90
20714;DHT22;10518;50.742;4.226;2023-07-09T03:00:25;22.30;99.90
20714;DHT22;10518;50.742;4.226;2023-07-09T03:02:50;22.90;99.90
20714;DHT22;10518;50.742;4.226;2023-07-09T03:05:16;23.00;99.90
20714;DHT22;10518;50.742;4.226;2023-07-09T03:07:41;22.80;99.90
20714;DHT22;10518;50.742;4.226;2023-07-09T03:10:07;22.80;99.90
20714;DHT22;10518;50.742;4.226;2023-07-09T03:12:33;23.00;99.90
20714;DHT22;10518;50.742;4.226;2023-07-09T03:14:59;22.80;99.90
20714;DHT22;10518;50.742;4.226;2023-07-09T03:17:24;22.60;99.90
20714;DHT22;10518;50.742;4.226;2023-07-09T03:19:50;22.40;99.90
20714;DHT22;10518;50.742;4.226;2023-07-09T03:22:16;22.40;99.90
20714;DHT22;10518;50.742;4.226;2023-07-09T03:24:42;22.30;99.90
20714;DHT22;10518;50.742;4.226;2023-07-09T03:27:08;22.60;99.90
20714;DHT22;10518;50.742;4.226;2023-07-09T03:29:34;22.90;99.90
20714;DHT22;10518;50.742;4.226;2023-07-09T03:32:00;22.60;99.90
20714;DHT22;10518;50.742;4.226;2023-07-09T03:34:25;22.70;99.90
20714;DHT22;10518;50.742;4.226;2023-07-09T03:36:51;22.60;99.90
20714;DHT22;10518;50.742;4.226;2023-07-09T03:39:17;22.40;99.90
20714;DHT22;10518;50.742;4.226;2023-07-09T03:41:42;22.30;99.90
20714;DHT22;10518;50.742;4.226;2023-07-09T03:44:08;22.10;99.90
20714;DHT22;10518;50.742;4.226;2023-07-09T03:46:33;22.10;99.90
20714;DHT22;10518;50.742;4.226;2023-07-09T03:48:59;22.00;99.90
20714;DHT22;10518;50.742;4.226;2023-07-09T03:51:25;21.90;99.90
20714;DHT22;10518;50.742;4.226;2023-07-09T03:53:51;21.90;99.90
20714;DHT22;10518;50.742;4.226;2023-07-09T03:56:16;21.90;99.90
20714;DHT22;10518;50.742;4.226;2023-07-09T03:58:42;21.80;99.90
20714;DHT22;10518;50.742;4.226;2023-07-09T04:01:07;21.90;99.90
20714;DHT22;10518;50.742;4.226;2023-07-09T04:03:33;21.90;99.90
20714;DHT22;10518;50.742;4.226;2023-07-09T04:05:59;21.80;99.90
20714;DHT22;10518;50.742;4.226;2023-07-09T04:08:24;21.80;99.90
20714;DHT22;10518;50.742;4.226;2023-07-09T04:10:54;21.80;99.90
20714;DHT22;10518;50.742;4.226;2023-07-09T04:13:22;21.80;99.90
20714;DHT22;10518;50.742;4.226;2023-07-09T04:15:47;21.80;99.90
20714;DHT22;10518;50.742;4.226;2023-07-09T04:18:13;21.80;99.90
20714;DHT22;10518;50.742;4.226;2023-07-09T04:20:38;21.80;99.90
20714;DHT22;10518;50.742;4.226;2023-07-09T04:23:05;21.80;99.90
20714;DHT22;10518;50.742;4.226;2023-07-09T04:25:31;21.80;99.90
20714;DHT22;10518;50.742;4.226;2023-07-09T04:27:57;21.80;99.90
20714;DHT22;10518;50.742;4.226;2023-07-09T04:30:22;21.90;99.90
20714;DHT22;10518;50.742;4.226;2023-07-09T04:32:48;21.90;99.90
20714;DHT22;10518;50.742;4.226;2023-07-09T04:35:14;21.90;99.90
20714;DHT22;10518;50.742;4.226;2023-07-09T04:37:40;22.00;99.90
20714;DHT22;10518;50.742;4.226;2023-07-09T04:40:07;22.00;99.90
20714;DHT22;10518;50.742;4.226;2023-07-09T04:42:36;22.10;99.90
20714;DHT22;10518;50.742;4.226;2023-07-09T04:45:03;22.10;99.90
20714;DHT22;10518;50.742;4.226;2023-07-09T04:47:29;22.10;99.90
20714;DHT22;10518;50.742;4.226;2023-07-09T04:49:54;22.20;99.90
20714;DHT22;10518;50.742;4.226;2023-07-09T04:52:20;22.30;99.90
20714;DHT22;10518;50.742;4.226;2023-07-09T04:54:47;22.30;99.90
20714;DHT22;10518;50.742;4.226;2023-07-09T04:57:13;22.40;99.90
20714;DHT22;10518;50.742;4.226;2023-07-09T04:59:38;22.50;99.90
20714;DHT22;10518;50.742;4.226;2023-07-09T05:02:04;22.50;99.90
20714;DHT22;10518;50.742;4.226;2023-07-09T05:04:30;22.70;99.90
20714;DHT22;10518;50.742;4.226;2023-07-09T05:06:57;22.90;99.90
20714;DHT22;10518;50.742;4.226;2023-07-09T05:09:23;22.90;99.90
20714;DHT22;10518;50.742;4.226;2023-07-09T05:11:49;23.00;99.90
20714;DHT22;10518;50.742;4.226;2023-07-09T05:14:15;23.20;99.90
20714;DHT22;10518;50.742;4.226;2023-07-09T05:16:40;23.20;99.90
20714;DHT22;10518;50.742;4.226;2023-07-09T05:19:07;23.70;99.90
20714;DHT22;10518;50.742;4.226;2023-07-09T05:21:34;24.00;99.90
20714;DHT22;10518;50.742;4.226;2023-07-09T05:23:59;24.10;99.90
20714;DHT22;10518;50.742;4.226;2023-07-09T05:26:25;24.00;99.90
20714;DHT22;10518;50.742;4.226;2023-07-09T05:28:51;24.10;99.90
20714;DHT22;10518;50.742;4.226;2023-07-09T05:31:16;24.20;99.90
20714;DHT22;10518;50.742;4.226;2023-07-09T05:33:42;24.50;99.90
20714;DHT22;10518;50.742;4.226;2023-07-09T05:36:08;24.90;99.90
20714;DHT22;10518;50.742;4.226;2023-07-09T05:38:44;25.50;99.90
20714;DHT22;10518;50.742;4.226;2023-07-09T05:41:11;25.50;99.90
20714;DHT22;10518;50.742;4.226;2023-07-09T05:43:37;26.00;99.90
20714;DHT22;10518;50.742;4.226;2023-07-09T05:46:04;26.70;99.90
20714;DHT22;10518;50.742;4.226;2023-07-09T05:48:30;27.20;99.90
20714;DHT22;10518;50.742;4.226;2023-07-09T05:50:55;27.90;99.90
20714;DHT22;10518;50.742;4.226;2023-07-09T05:53:22;28.50;99.90
20714;DHT22;10518;50.742;4.226;2023-07-09T05:55:47;29.20;99.90
20714;DHT22;10518;50.742;4.226;2023-07-09T05:58:13;29.80;99.90
20714;DHT22;10518;50.742;4.226;2023-07-09T06:00:38;30.30;99.90
20714;DHT22;10518;50.742;4.226;2023-07-09T06:03:06;30.80;99.90
20714;DHT22;10518;50.742;4.226;2023-07-09T06:05:33;31.40;99.90
20714;DHT22;10518;50.742;4.226;2023-07-09T06:07:59;31.80;99.90
20714;DHT22;10518;50.742;4.226;2023-07-09T06:10:25;32.00;99.90
20714;DHT22;10518;50.742;4.226;2023-07-09T06:12:51;32.30;99.90
20714;DHT22;10518;50.742;4.226;2023-07-09T06:15:16;32.60;99.90
20714;DHT22;10518;50.742;4.226;2023-07-09T06:17:42;33.00;99.90
20714;DHT22;10518;50.742;4.226;2023-07-09T06:20:08;33.10;99.90
20714;DHT22;10518;50.742;4.226;2023-07-09T06:22:34;33.00;99.90
20714;DHT22;10518;50.742;4.226;2023-07-09T06:24:59;33.50;99.90
20714;DHT22;10518;50.742;4.226;2023-07-09T06:27:26;33.70;99.90
20714;DHT22;10518;50.742;4.226;2023-07-09T06:29:51;33.90;99.90
20714;DHT22;10518;50.742;4.226;2023-07-09T06:32:17;34.10;99.90
20714;DHT22;10518;50.742;4.226;2023-07-09T06:34:42;34.20;99.90
20714;DHT22;10518;50.742;4.226;2023-07-09T06:37:08;34.30;99.90
20714;DHT22;10518;50.742;4.226;2023-07-09T06:39:34;34.60;99.90
20714;DHT22;10518;50.742;4.226;2023-07-09T06:41:59;34.90;99.90
20714;DHT22;10518;50.742;4.226;2023-07-09T06:44:25;34.80;99.90
20714;DHT22;10518;50.742;4.226;2023-07-09T06:46:51;34.60;99.90
20714;DHT22;10518;50.742;4.226;2023-07-09T06:49:16;34.40;99.90
20714;DHT22;10518;50.742;4.226;2023-07-09T06:51:42;34.10;99.90
20714;DHT22;10518;50.742;4.226;2023-07-09T06:54:08;34.10;99.90
20714;DHT22;10518;50.742;4.226;2023-07-09T06:56:34;34.10;99.90
20714;DHT22;10518;50.742;4.226;2023-07-09T06:59:00;33.80;99.90
20714;DHT22;10518;50.742;4.226;2023-07-09T07:01:25;33.60;99.90
20714;DHT22;10518;50.742;4.226;2023-07-09T07:03:51;33.50;99.90
20714;DHT22;10518;50.742;4.226;2023-07-09T07:06:16;33.30;99.90
20714;DHT22;10518;50.742;4.226;2023-07-09T07:08:42;33.30;99.90
20714;DHT22;10518;50.742;4.226;2023-07-09T07:11:08;33.30;99.90
20714;DHT22;10518;50.742;4.226;2023-07-09T07:13:43;33.40;99.90
20714;DHT22;10518;50.742;4.226;2023-07-09T07:16:10;33.30;99.90
20714;DHT22;10518;50.742;4.226;2023-07-09T07:18:36;33.30;99.90
20714;DHT22;10518;50.742;4.226;2023-07-09T07:21:03;33.30;99.90
20714;DHT22;10518;50.742;4.226;2023-07-09T07:23:29;33.30;99.90
20714;DHT22;10518;50.742;4.226;2023-07-09T07:25:55;33.60;99.90
20714;DHT22;10518;50.742;4.226;2023-07-09T07:28:21;33.50;99.90
20714;DHT22;10518;50.742;4.226;2023-07-09T07:30:47;33.50;99.90
20714;DHT22;10518;50.742;4.226;2023-07-09T07:33:22;33.20;99.90
20714;DHT22;10518;50.742;4.226;2023-07-09T07:35:48;33.40;99.90
20714;DHT22;10518;50.742;4.226;2023-07-09T07:38:13;33.70;99.90
20714;DHT22;10518;50.742;4.226;2023-07-09T07:40:39;34.10;99.90
20714;DHT22;10518;50.742;4.226;2023-07-09T07:43:04;34.60;99.90
20714;DHT22;10518;50.742;4.226;2023-07-09T07:45:30;34.20;99.90
20714;DHT22;10518;50.742;4.226;2023-07-09T07:47:55;34.10;99.90
20714;DHT22;10518;50.742;4.226;2023-07-09T07:50:21;34.20;99.90
20714;DHT22;10518;50.742;4.226;2023-07-09T07:52:46;34.00;99.90
20714;DHT22;10518;50.742;4.226;2023-07-09T07:55:12;33.80;99.90
20714;DHT22;10518;50.742;4.226;2023-07-09T07:57:37;34.10;99.90
20714;DHT22;10518;50.742;4.226;2023-07-09T08:00:03;34.40;99.90
20714;DHT22;10518;50.742;4.226;2023-07-09T08:02:29;34.30;99.90
20714;DHT22;10518;50.742;4.226;2023-07-09T08:04:55;34.30;99.90
20714;DHT22;10518;50.742;4.226;2023-07-09T08:07:21;34.70;99.90
20714;DHT22;10518;50.742;4.226;2023-07-09T08:09:47;34.90;99.90
20714;DHT22;10518;50.742;4.226;2023-07-09T08:12:13;35.00;99.90
20714;DHT22;10518;50.742;4.226;2023-07-09T08:14:40;34.70;99.90
20714;DHT22;10518;50.742;4.226;2023-07-09T08:17:07;35.00;99.90
20714;DHT22;10518;50.742;4.226;2023-07-09T08:19:47;35.20;99.90
20714;DHT22;10518;50.742;4.226;2023-07-09T08:22:13;35.10;99.90
20714;DHT22;10518;50.742;4.226;2023-07-09T08:24:39;34.80;99.90
20714;DHT22;10518;50.742;4.226;2023-07-09T08:27:06;34.10;99.90
20714;DHT22;10518;50.742;4.226;2023-07-09T08:29:32;33.60;99.90
20714;DHT22;10518;50.742;4.226;2023-07-09T08:31:58;32.60;99.90
20714;DHT22;10518;50.742;4.226;2023-07-09T08:34:23;32.60;99.90
20714;DHT22;10518;50.742;4.226;2023-07-09T08:36:49;31.90;99.90
20714;DHT22;10518;50.742;4.226;2023-07-09T08:39:14;31.70;99.90
20714;DHT22;10518;50.742;4.226;2023-07-09T08:50:12;31.10;99.90
20714;DHT22;10518;50.742;4.226;2023-07-09T08:52:43;31.40;99.90
20714;DHT22;10518;50.742;4.226;2023-07-09T08:55:11;31.40;99.90
20714;DHT22;10518;50.742;4.226;2023-07-09T08:57:40;31.40;99.90
20714;DHT22;10518;50.742;4.226;2023-07-09T09:00:30;31.20;99.90
20714;DHT22;10518;50.742;4.226;2023-07-09T09:03:00;31.00;99.90
20714;DHT22;10518;50.742;4.226;2023-07-09T09:05:32;30.90;99.90
20714;DHT22;10518;50.742;4.226;2023-07-09T09:08:03;30.90;99.90
20714;DHT22;10518;50.742;4.226;2023-07-09T09:10:36;31.00;99.90
20714;DHT22;10518;50.742;4.226;2023-07-09T09:13:15;30.70;99.90
20714;DHT22;10518;50.742;4.226;2023-07-09T09:15:46;30.60;99.90
20714;DHT22;10518;50.742;4.226;2023-07-09T09:18:39;30.70;99.90
20714;DHT22;10518;50.742;4.226;2023-07-09T09:21:31;30.70;99.90
20714;DHT22;10518;50.742;4.226;2023-07-09T09:24:12;31.10;99.90
20714;DHT22;10518;50.742;4.226;2023-07-09T09:26:41;31.00;99.90
20714;DHT22;10518;50.742;4.226;2023-07-09T09:29:12;30.80;99.90
20714;DHT22;10518;50.742;4.226;2023-07-09T09:31:38;30.90;99.90
20714;DHT22;10518;50.742;4.226;2023-07-09T09:34:03;30.90;99.90
20714;DHT22;10518;50.742;4.226;2023-07-09T09:36:30;31.20;99.90
20714;DHT22;10518;50.742;4.226;2023-07-09T09:39:02;31.20;99.90
20714;DHT22;10518;50.742;4.226;2023-07-09T09:41:37;31.00;99.90
20714;DHT22;10518;50.742;4.226;2023-07-09T09:44:03;31.00;99.90
20714;DHT22;10518;50.742;4.226;2023-07-09T09:46:32;30.90;99.90
20714;DHT22;10518;50.742;4.226;2023-07-09T09:49:02;30.70;99.90
20714;DHT22;10518;50.742;4.226;2023-07-09T09:51:28;30.70;99.90
20714;DHT22;10518;50.742;4.226;2023-07-09T09:53:59;30.50;99.90
20714;DHT22;10518;50.742;4.226;2023-07-09T09:56:33;30.30;99.90
20714;DHT22;10518;50.742;4.226;2023-07-09T09:58:59;30.30;99.90
20714;DHT22;10518;50.742;4.226;2023-07-09T10:01:28;30.40;99.90
20714;DHT22;10518;50.742;4.226;2023-07-09T10:03:56;30.70;99.90
20714;DHT22;10518;50.742;4.226;2023-07-09T10:06:36;30.90;99.90
20714;DHT22;10518;50.742;4.226;2023-07-09T10:11:57;31.00;99.90
20714;DHT22;10518;50.742;4.226;2023-07-09T10:14:43;30.90;99.90
20714;DHT22;10518;50.742;4.226;2023-07-09T10:17:37;31.00;99.90
20714;DHT22;10518;50.742;4.226;2023-07-09T10:20:38;30.90;99.90
20714;DHT22;10518;50.742;4.226;2023-07-09T10:23:30;30.80;99.90
20714;DHT22;10518;50.742;4.226;2023-07-09T10:31:51;30.90;99.90
20714;DHT22;10518;50.742;4.226;2023-07-09T10:39:57;30.40;99.90
20714;DHT22;10518;50.742;4.226;2023-07-09T10:42:27;30.30;99.90
20714;DHT22;10518;50.742;4.226;2023-07-09T10:44:57;30.30;99.90
20714;DHT22;10518;50.742;4.226;2023-07-09T10:47:27;30.20;99.90
20714;DHT22;10518;50.742;4.226;2023-07-09T10:49:54;30.10;99.90
20714;DHT22;10518;50.742;4.226;2023-07-09T10:52:34;30.00;99.90
20714;DHT22;10518;50.742;4.226;2023-07-09T10:55:17;30.00;99.90
20714;DHT22;10518;50.742;4.226;2023-07-09T11:00:24;30.00;99.90
20714;DHT22;10518;50.742;4.226;2023-07-09T11:03:02;30.00;99.90
20714;DHT22;10518;50.742;4.226;2023-07-09T11:05:29;29.90;99.90
20714;DHT22;10518;50.742;4.226;2023-07-09T11:10:32;29.80;99.90
20714;DHT22;10518;50.742;4.226;2023-07-09T11:13:09;29.90;99.90
20714;DHT22;10518;50.742;4.226;2023-07-09T11:15:39;30.10;99.90
20714;DHT22;10518;50.742;4.226;2023-07-09T11:18:07;30.00;99.90
20714;DHT22;10518;50.742;4.226;2023-07-09T11:20:41;29.70;99.90
20714;DHT22;10518;50.742;4.226;2023-07-09T11:23:18;29.60;99.90
20714;DHT22;10518;50.742;4.226;2023-07-09T11:25:47;29.50;99.90
20714;DHT22;10518;50.742;4.226;2023-07-09T11:28:13;29.20;99.90
20714;DHT22;10518;50.742;4.226;2023-07-09T11:31:06;29.20;99.90
20714;DHT22;10518;50.742;4.226;2023-07-09T11:33:32;28.90;99.90
20714;DHT22;10518;50.742;4.226;2023-07-09T11:36:11;28.80;99.90
20714;DHT22;10518;50.742;4.226;2023-07-09T11:38:43;28.40;99.90
20714;DHT22;10518;50.742;4.226;2023-07-09T11:41:37;28.20;99.90
20714;DHT22;10518;50.742;4.226;2023-07-09T11:52:10;28.50;99.90
20714;DHT22;10518;50.742;4.226;2023-07-09T11:54:37;28.40;99.90
20714;DHT22;10518;50.742;4.226;2023-07-09T11:57:03;28.20;99.90
20714;DHT22;10518;50.742;4.226;2023-07-09T11:59:29;27.90;99.90
20714;DHT22;10518;50.742;4.226;2023-07-09T12:01:54;27.60;99.90
20714;DHT22;10518;50.742;4.226;2023-07-09T12:04:31;27.20;99.90
20714;DHT22;10518;50.742;4.226;2023-07-09T12:06:59;27.00;99.90
20714;DHT22;10518;50.742;4.226;2023-07-09T12:09:37;26.90;99.90
20714;DHT22;10518;50.742;4.226;2023-07-09T12:12:15;26.90;99.90
20714;DHT22;10518;50.742;4.226;2023-07-09T12:14:41;26.90;99.90
20714;DHT22;10518;50.742;4.226;2023-07-09T12:17:08;26.50;99.90
20714;DHT22;10518;50.742;4.226;2023-07-09T12:19:34;26.20;99.90
20714;DHT22;10518;50.742;4.226;2023-07-09T12:22:00;26.10;99.90
20714;DHT22;10518;50.742;4.226;2023-07-09T12:24:28;25.50;99.90
20714;DHT22;10518;50.742;4.226;2023-07-09T12:26:56;25.40;99.90
20714;DHT22;10518;50.742;4.226;2023-07-09T12:29:34;25.40;99.90
20714;DHT22;10518;50.742;4.226;2023-07-09T12:32:05;25.10;99.90
20714;DHT22;10518;50.742;4.226;2023-07-09T12:34:35;24.80;99.90
20714;DHT22;10518;50.742;4.226;2023-07-09T12:37:01;24.70;99.90
20714;DHT22;10518;50.742;4.226;2023-07-09T12:39:29;25.00;99.90
20714;DHT22;10518;50.742;4.226;2023-07-09T12:42:00;25.20;99.90
20714;DHT22;10518;50.742;4.226;2023-07-09T12:44:26;25.10;99.90
20714;DHT22;10518;50.742;4.226;2023-07-09T12:46:54;25.10;99.90
20714;DHT22;10518;50.742;4.226;2023-07-09T12:49:25;25.10;99.90
20714;DHT22;10518;50.742;4.226;2023-07-09T12:51:56;25.00;99.90
20714;DHT22;10518;50.742;4.226;2023-07-09T12:54:22;25.00;99.90
20714;DHT22;10518;50.742;4.226;2023-07-09T12:56:56;24.90;99.90
20714;DHT22;10518;50.742;4.226;2023-07-09T12:59:28;25.00;99.90
20714;DHT22;10518;50.742;4.226;2023-07-09T13:04:33;25.30;99.90
20714;DHT22;10518;50.742;4.226;2023-07-09T13:06:58;25.40;99.90
20714;DHT22;10518;50.742;4.226;2023-07-09T13:09:25;25.40;99.90
20714;DHT22;10518;50.742;4.226;2023-07-09T13:11:51;25.40;99.90
20714;DHT22;10518;50.742;4.226;2023-07-09T13:14:29;25.60;99.90
20714;DHT22;10518;50.742;4.226;2023-07-09T13:17:07;25.80;99.90
20714;DHT22;10518;50.742;4.226;2023-07-09T13:19:33;25.60;99.90
20714;DHT22;10518;50.742;4.226;2023-07-09T13:21:59;25.60;99.90
20714;DHT22;10518;50.742;4.226;2023-07-09T13:24:28;25.90;99.90
20714;DHT22;10518;50.742;4.226;2023-07-09T13:26:55;26.00;99.90
20714;DHT22;10518;50.742;4.226;2023-07-09T13:29:24;25.90;99.90
20714;DHT22;10518;50.742;4.226;2023-07-09T13:31:50;25.60;99.90
20714;DHT22;10518;50.742;4.226;2023-07-09T13:34:20;25.50;99.90
20714;DHT22;10518;50.742;4.226;2023-07-09T13:36:47;25.60;99.90
20714;DHT22;10518;50.742;4.226;2023-07-09T13:39:13;25.60;99.90
20714;DHT22;10518;50.742;4.226;2023-07-09T13:41:44;25.70;99.90
20714;DHT22;10518;50.742;4.226;2023-07-09T13:44:13;26.10;99.90
20714;DHT22;10518;50.742;4.226;2023-07-09T13:46:39;26.10;99.90
20714;DHT22;10518;50.742;4.226;2023-07-09T13:49:09;26.20;99.90
20714;DHT22;10518;50.742;4.226;2023-07-09T13:51:35;26.30;99.90
20714;DHT22;10518;50.742;4.226;2023-07-09T13:54:01;26.20;99.90
20714;DHT22;10518;50.742;4.226;2023-07-09T13:56:29;26.20;99.90
20714;DHT22;10518;50.742;4.226;2023-07-09T13:58:54;26.70;99.90
20714;DHT22;10518;50.742;4.226;2023-07-09T14:01:22;27.00;99.90
20714;DHT22;10518;50.742;4.226;2023-07-09T14:03:48;27.40;99.90
20714;DHT22;10518;50.742;4.226;2023-07-09T14:06:16;27.20;99.90
20714;DHT22;10518;50.742;4.226;2023-07-09T14:08:42;26.80;99.90
20714;DHT22;10518;50.742;4.226;2023-07-09T14:11:13;26.90;99.90
20714;DHT22;10518;50.742;4.226;2023-07-09T14:13:39;27.00;99.90
20714;DHT22;10518;50.742;4.226;2023-07-09T14:16:05;27.40;99.90
20714;DHT22;10518;50.742;4.226;2023-07-09T14:18:31;27.30;99.90
20714;DHT22;10518;50.742;4.226;2023-07-09T14:20:57;27.50;99.90
20714;DHT22;10518;50.742;4.226;2023-07-09T14:23:22;27.40;99.90
20714;DHT22;10518;50.742;4.226;2023-07-09T14:25:48;26.80;99.90
20714;DHT22;10518;50.742;4.226;2023-07-09T14:28:16;26.70;99.90
20714;DHT22;10518;50.742;4.226;2023-07-09T14:30:42;27.00;99.90
20714;DHT22;10518;50.742;4.226;2023-07-09T14:33:16;27.00;99.90
20714;DHT22;10518;50.742;4.226;2023-07-09T14:35:42;27.20;99.90
20714;DHT22;10518;50.742;4.226;2023-07-09T14:38:26;27.20;99.90
20714;DHT22;10518;50.742;4.226;2023-07-09T14:40:54;27.10;99.90
20714;DHT22;10518;50.742;4.226;2023-07-09T14:43:21;27.00;99.90
20714;DHT22;10518;50.742;4.226;2023-07-09T14:45:48;27.40;99.90
20714;DHT22;10518;50.742;4.226;2023-07-09T14:48:19;27.50;99.90
20714;DHT22;10518;50.742;4.226;2023-07-09T14:50:45;27.50;99.90
20714;DHT22;10518;50.742;4.226;2023-07-09T14:53:23;27.40;99.90
20714;DHT22;10518;50.742;4.226;2023-07-09T14:55:49;27.30;99.90
20714;DHT22;10518;50.742;4.226;2023-07-09T14:58:20;27.40;99.90
20714;DHT22;10518;50.742;4.226;2023-07-09T15:00:47;27.50;99.90
20714;DHT22;10518;50.742;4.226;2023-07-09T15:03:21;27.70;99.90
20714;DHT22;10518;50.742;4.226;2023-07-09T15:05:48;27.70;99.90
20714;DHT22;10518;50.742;4.226;2023-07-09T15:08:17;27.70;99.90
20714;DHT22;10518;50.742;4.226;2023-07-09T15:10:43;27.60;99.90
20714;DHT22;10518;50.742;4.226;2023-07-09T15:13:17;27.50;99.90
20714;DHT22;10518;50.742;4.226;2023-07-09T15:15:44;27.50;99.90
20714;DHT22;10518;50.742;4.226;2023-07-09T15:18:12;27.80;99.90
20714;DHT22;10518;50.742;4.226;2023-07-09T15:20:38;27.80;99.90
20714;DHT22;10518;50.742;4.226;2023-07-09T15:23:05;27.60;99.90
20714;DHT22;10518;50.742;4.226;2023-07-09T15:25:31;27.80;99.90
20714;DHT22;10518;50.742;4.226;2023-07-09T15:27:57;28.00;99.90
20714;DHT22;10518;50.742;4.226;2023-07-09T15:30:25;28.00;99.90
20714;DHT22;10518;50.742;4.226;2023-07-09T15:32:51;28.30;99.90
20714;DHT22;10518;50.742;4.226;2023-07-09T15:35:18;28.50;99.90
20714;DHT22;10518;50.742;4.226;2023-07-09T15:37:45;28.30;99.90
20714;DHT22;10518;50.742;4.226;2023-07-09T15:40:21;28.30;99.90
20714;DHT22;10518;50.742;4.226;2023-07-09T15:42:48;28.60;99.90
20714;DHT22;10518;50.742;4.226;2023-07-09T15:45:16;28.60;99.90
20714;DHT22;10518;50.742;4.226;2023-07-09T15:47:42;28.90;99.90
20714;DHT22;10518;50.742;4.226;2023-07-09T15:50:19;29.00;99.90
20714;DHT22;10518;50.742;4.226;2023-07-09T15:52:45;29.10;99.90
20714;DHT22;10518;50.742;4.226;2023-07-09T15:55:19;28.90;99.90
20714;DHT22;10518;50.742;4.226;2023-07-09T15:57:46;28.60;99.90
20714;DHT22;10518;50.742;4.226;2023-07-09T16:02:43;28.10;99.90
20714;DHT22;10518;50.742;4.226;2023-07-09T16:07:46;28.10;99.90
20714;DHT22;10518;50.742;4.226;2023-07-09T16:10:12;28.20;99.90
20714;DHT22;10518;50.742;4.226;2023-07-09T16:12:38;28.10;99.90
20714;DHT22;10518;50.742;4.226;2023-07-09T16:15:04;28.20;99.90
20714;DHT22;10518;50.742;4.226;2023-07-09T16:17:30;28.20;99.90
20714;DHT22;10518;50.742;4.226;2023-07-09T16:19:55;28.10;99.90
20714;DHT22;10518;50.742;4.226;2023-07-09T16:22:21;27.70;99.90
20714;DHT22;10518;50.742;4.226;2023-07-09T16:24:48;27.40;99.90